Time;durP1;ratioP1;P1;durP2;ratioP2;P2;SDS_P1;SDS_P2;PMS_P1;PMS_P2;Temp;Humidity;BMP_temperature;BMP_pressure;BME280_temperature;BME280_humidity;BME280_pressure;Samples;Min_cycle;Max_cycle;Signal;HPM_P1;HPM_P2
2021/03/08 00:02:10;;;;;;;33.30;13.95;;;3.00;99.90;;;;;;20983184;28;20029;-75
2021/03/08 00:12:11;;;;;;;;;;;2.90;99.90;;;;;;20983155;28;20037;-75
2021/03/08 00:22:11;;;;;;;32.88;14.02;;;2.60;99.90;;;;;;20999907;28;19958;-75
2021/03/08 00:32:12;;;;;;;31.27;14.17;;;2.50;99.90;;;;;;21000884;28;20035;-75
2021/03/08 00:42:13;;;;;;;37.93;15.90;;;2.60;99.90;;;;;;20993721;28;20362;-75
2021/03/08 00:52:15;;;;;;;33.10;15.13;;;2.40;99.90;;;;;;20998584;28;20339;-75
2021/03/08 01:02:16;;;;;;;35.70;15.23;;;2.10;99.90;;;;;;20996643;28;20032;-75
2021/03/08 01:12:19;;;;;;;35.67;15.35;;;1.70;99.90;;;;;;20977607;28;20082;-75
2021/03/08 01:22:25;;;;;;;37.42;15.18;;;1.50;99.90;;;;;;20977292;28;20032;-75
2021/03/08 01:32:26;;;;;;;41.42;16.88;;;1.60;99.90;;;;;;20994276;28;20108;-75
2021/03/08 01:42:27;;;;;;;38.25;15.15;;;1.20;99.90;;;;;;20993326;28;20047;-74
2021/03/08 01:52:28;;;;;;;34.85;15.48;;;1.40;99.90;;;;;;20992374;28;20062;-75
2021/03/08 02:02:29;;;;;;;32.63;15.23;;;1.30;99.90;;;;;;20974131;28;20402;-75
2021/03/08 02:12:40;;;;;;;38.33;15.77;;;1.20;99.90;;;;;;20991086;28;20032;-75
2021/03/08 02:23:18;;;;;;;51.90;17.73;;;0.80;99.90;;;;;;20990420;28;20027;-75
2021/03/08 02:33:24;;;;;;;48.67;21.27;;;0.70;99.90;;;;;;20990096;28;20028;-75
2021/03/08 02:43:28;;;;;;;44.45;18.90;;;0.80;99.90;;;;;;20990233;28;20068;-75
2021/03/08 02:53:33;;;;;;;37.28;17.40;;;1.00;99.90;;;;;;20971863;28;20029;-75
2021/03/08 03:03:39;;;;;;;49.25;18.33;;;1.10;99.90;;;;;;20989376;28;20098;-75
2021/03/08 03:13:44;;;;;;;49.15;19.75;;;1.20;99.90;;;;;;20988701;28;20024;-75
2021/03/08 03:23:48;;;;;;;43.35;18.27;;;1.20;99.90;;;;;;20988893;28;20491;-75
2021/03/08 03:33:50;;;;;;;39.72;16.98;;;1.20;99.90;;;;;;21003964;28;20058;-75
2021/03/08 03:43:51;;;;;;;37.72;17.50;;;1.10;99.90;;;;;;21002646;28;20040;-75
2021/03/08 03:53:52;;;;;;;42.33;18.75;;;0.90;99.90;;;;;;20950572;28;20563;-75
2021/03/08 04:04:14;;;;;;;40.58;17.85;;;0.70;99.90;;;;;;20899940;28;20106;-75
2021/03/08 04:14:18;;;;;;;52.25;20.50;;;0.50;99.90;;;;;;20910916;28;20525;-75
2021/03/08 04:24:20;;;;;;;48.17;19.75;;;0.40;99.90;;;;;;20911735;28;20125;-75
2021/03/08 04:34:21;;;;;;;51.95;19.35;;;0.20;99.90;;;;;;20969638;23;20040;-74
2021/03/08 04:44:22;;;;;;;52.38;22.00;;;0.00;99.90;;;;;;21081205;28;20762;-73
2021/03/08 04:54:24;;;;;;;65.93;21.73;;;-0.20;99.90;;;;;;21160538;28;20445;-73
2021/03/08 05:04:25;;;;;;;52.83;20.55;;;-0.20;99.90;;;;;;21164301;28;20035;-73
2021/03/08 05:14:28;;;;;;;50.95;19.15;;;-0.10;99.90;;;;;;21163687;28;20438;-73
2021/03/08 05:24:29;;;;;;;54.63;21.15;;;-0.50;99.90;;;;;;21162386;28;20036;-73
2021/03/08 05:34:32;;;;;;;50.45;20.83;;;-0.50;99.90;;;;;;21161562;28;20085;-73
2021/03/08 05:44:34;;;;;;;57.90;24.75;;;-0.30;99.90;;;;;;21161104;28;20035;-73
2021/03/08 05:54:56;;;;;;;47.58;19.13;;;-0.20;99.90;;;;;;21164224;28;20393;-73
2021/03/08 06:05:26;;;;;;;46.00;19.98;;;0.20;99.90;;;;;;21159623;28;20027;-73
2021/03/08 06:15:32;;;;;;;93.38;36.90;;;0.20;99.90;;;;;;21086154;28;20042;-74
2021/03/08 06:25:33;;;;;;;54.58;23.40;;;0.00;99.90;;;;;;21158742;28;20056;-75
2021/03/08 06:35:34;;;;;;;60.67;27.25;;;-0.20;99.90;;;;;;21150473;28;20225;-75
2021/03/08 06:45:35;;;;;;;59.88;28.77;;;-0.10;99.90;;;;;;21140407;28;20032;-74
2021/03/08 06:55:36;;;;;;;44.63;19.83;;;0.40;99.90;;;;;;21120870;28;20085;-75
2021/03/08 07:05:37;;;;;;;44.25;19.23;;;0.60;99.90;;;;;;21168145;28;20020;-75
2021/03/08 07:16:00;;;;;;;44.50;18.83;;;1.20;99.90;;;;;;21171789;28;20046;-75
2021/03/08 07:26:09;;;;;;;39.22;18.42;;;2.00;99.90;;;;;;21171827;28;20031;-75
2021/03/08 07:36:14;;;;;;;48.58;19.98;;;3.30;99.90;;;;;;21171773;28;20073;-75
2021/03/08 07:46:32;;;;;;;47.78;22.23;;;3.50;99.90;;;;;;21170885;28;20409;-74
2021/03/08 07:56:34;;;;;;;42.95;20.83;;;3.10;99.90;;;;;;21152269;28;20032;-75
2021/03/08 08:06:36;;;;;;;56.53;22.23;;;3.30;99.90;;;;;;21168936;28;20020;-73
2021/03/08 08:16:39;;;;;;;41.20;20.88;;;3.90;99.90;;;;;;21167886;28;20426;-76
2021/03/08 08:26:41;;;;;;;45.50;21.30;;;3.90;99.90;;;;;;21149334;28;20032;-75
2021/03/08 08:37:22;;;;;;;41.90;20.33;;;4.60;99.90;;;;;;21166538;28;20150;-75
2021/03/08 08:47:25;;;;;;;46.92;19.40;;;5.20;99.90;;;;;;21165579;28;20048;-75
2021/03/08 08:57:26;;;;;;;37.47;18.65;;;5.70;99.90;;;;;;21165762;28;20023;-76
2021/03/08 09:07:30;;;;;;;33.47;18.17;;;7.10;99.90;;;;;;21164426;28;20127;-76
2021/03/08 09:17:30;;;;;;;36.58;17.63;;;7.40;99.90;;;;;;21163540;28;20453;-76
2021/03/08 09:27:33;;;;;;;32.63;17.53;;;7.50;99.90;;;;;;21162497;28;20031;-76
2021/03/08 09:37:35;;;;;;;34.67;18.10;;;7.80;99.90;;;;;;21161511;28;20042;-75
2021/03/08 09:47:40;;;;;;;36.80;17.93;;;8.40;99.90;;;;;;21161319;28;20023;-76
2021/03/08 09:57:42;;;;;;;44.42;20.98;;;9.50;99.90;;;;;;21160129;28;20031;-76
2021/03/08 10:07:54;;;;;;;28.50;15.18;;;9.30;99.90;;;;;;21158651;28;20031;-77
2021/03/08 10:17:59;;;;;;;26.03;14.70;;;10.80;99.90;;;;;;21087792;28;20035;-76
2021/03/08 10:28:02;;;;;;;24.02;14.45;;;11.10;99.90;;;;;;21056087;28;20442;-77
2021/03/08 10:38:04;;;;;;;22.02;13.18;;;12.80;99.90;;;;;;21091502;22;20524;-76
2021/03/08 10:48:11;;;;;;;33.88;18.00;;;12.60;99.90;;;;;;21073048;28;20508;-76
2021/03/08 10:58:12;;;;;;;20.83;12.20;;;12.80;99.90;;;;;;21070236;28;20027;-77
2021/03/08 11:08:13;;;;;;;23.93;11.93;;;13.50;98.20;;;;;;21072363;28;20028;-77
2021/03/08 11:18:24;;;;;;;19.92;10.25;;;14.40;95.70;;;;;;21072371;28;20071;-77
2021/03/08 11:28:38;;;;;;;19.33;10.90;;;13.10;95.90;;;;;;21071021;28;20061;-76
2021/03/08 11:38:48;;;;;;;18.63;10.30;;;13.40;94.20;;;;;;21070745;28;20123;-77
2021/03/08 11:48:49;;;;;;;15.63;10.23;;;13.90;92.80;;;;;;21074578;28;20032;-76
2021/03/08 11:58:50;;;;;;;19.33;11.95;;;13.80;93.30;;;;;;21084584;28;20034;-76
2021/03/08 12:08:51;;;;;;;19.02;10.27;;;14.20;91.70;;;;;;21082781;28;20032;-76
2021/03/08 12:18:52;;;;;;;26.00;13.63;;;13.70;92.40;;;;;;21077282;28;20084;-77
2021/03/08 12:28:52;;;;;;;16.13;9.48;;;14.20;91.00;;;;;;21065173;28;20031;-77
2021/03/08 12:38:53;;;;;;;17.73;9.93;;;15.00;90.40;;;;;;21081900;28;20067;-77
2021/03/08 12:48:54;;;;;;;14.98;7.40;;;14.60;89.50;;;;;;21081582;28;20063;-77
2021/03/08 12:58:55;;;;;;;17.75;7.85;;;15.10;86.60;;;;;;21078959;28;20043;-76
2021/03/08 13:08:56;;;;;;;42.40;21.23;;;14.20;87.60;;;;;;21074097;28;20036;-78
2021/03/08 13:18:57;;;;;;;17.65;9.25;;;15.10;88.80;;;;;;21077749;28;20047;-77
2021/03/08 13:28:57;;;;;;;19.67;10.75;;;14.60;82.90;;;;;;21014309;28;20037;-76
2021/03/08 13:38:58;;;;;;;18.90;10.13;;;14.90;82.00;;;;;;20993446;28;20039;-76
2021/03/08 13:48:59;;;;;;;15.00;9.38;;;14.60;81.50;;;;;;20995858;28;20031;-77
2021/03/08 13:59:00;;;;;;;17.15;9.93;;;14.80;84.30;;;;;;20991800;28;20028;-77
2021/03/08 14:09:01;;;;;;;19.98;8.90;;;14.00;83.60;;;;;;20995864;28;20024;-75
2021/03/08 14:19:02;;;;;;;27.27;13.45;;;14.80;85.00;;;;;;21027542;28;20036;-77
2021/03/08 14:29:04;;;;;;;17.73;9.35;;;14.40;81.60;;;;;;21028221;28;20037;-76
2021/03/08 14:39:05;;;;;;;15.65;8.32;;;15.30;79.10;;;;;;20992272;28;20115;-77
2021/03/08 14:49:05;;;;;;;15.50;10.37;;;13.70;83.00;;;;;;20969546;28;20033;-77
2021/03/08 14:59:06;;;;;;;17.88;9.23;;;14.20;85.70;;;;;;20977058;28;20032;-76
2021/03/08 15:09:07;;;;;;;14.13;9.13;;;14.60;81.20;;;;;;20987153;28;20028;-77
2021/03/08 15:19:08;;;;;;;14.98;9.15;;;14.60;81.30;;;;;;21030832;28;20063;-76
2021/03/08 15:29:09;;;;;;;15.38;10.25;;;14.50;80.40;;;;;;21117099;28;20058;-77
2021/03/08 15:39:10;;;;;;;19.13;8.93;;;14.40;79.00;;;;;;21030606;28;20413;-77
2021/03/08 15:49:11;;;;;;;15.82;9.68;;;13.80;81.90;;;;;;20996024;28;20546;-77
2021/03/08 15:59:12;;;;;;;14.47;9.60;;;13.80;81.50;;;;;;20981041;28;20048;-77
2021/03/08 16:09:13;;;;;;;20.60;9.90;;;12.50;83.40;;;;;;21038759;28;20394;-77
2021/03/08 16:19:14;;;;;;;19.25;10.13;;;12.20;83.10;;;;;;21062324;28;20043;-77
2021/03/08 16:29:14;;;;;;;19.30;9.35;;;11.50;86.10;;;;;;21062149;28;20518;-77
2021/03/08 16:39:16;;;;;;;23.80;9.52;;;11.00;88.40;;;;;;21114511;23;20054;-76
2021/03/08 16:49:17;;;;;;;19.47;11.73;;;10.70;90.00;;;;;;21138513;28;20028;-76
2021/03/08 16:59:17;;;;;;;32.25;12.68;;;10.20;91.60;;;;;;21146234;28;20032;-76
2021/03/08 17:09:18;;;;;;;20.50;11.38;;;10.00;93.40;;;;;;21145424;28;20038;-76
2021/03/08 17:19:19;;;;;;;56.25;26.38;;;9.60;95.50;;;;;;21128284;28;20122;-75
2021/03/08 17:29:20;;;;;;;20.10;9.93;;;8.80;99.00;;;;;;21144041;28;20034;-76
2021/03/08 17:39:21;;;;;;;23.77;10.77;;;8.20;99.90;;;;;;21133539;28;20035;-75
2021/03/08 17:49:22;;;;;;;23.50;10.13;;;7.60;99.90;;;;;;21116627;27;20116;-73
2021/03/08 17:59:23;;;;;;;19.83;10.17;;;7.30;99.90;;;;;;21138068;27;20035;-75
2021/03/08 18:09:24;;;;;;;16.17;9.60;;;7.10;99.90;;;;;;21115938;28;20034;-74
2021/03/08 18:19:25;;;;;;;20.07;10.10;;;7.20;99.90;;;;;;21137227;28;20062;-76
2021/03/08 18:29:26;;;;;;;21.53;10.47;;;5.50;99.90;;;;;;21116940;28;20586;-76
2021/03/08 18:39:26;;;;;;;21.00;10.77;;;5.80;99.90;;;;;;21136587;28;20088;-77
2021/03/08 18:49:27;;;;;;;22.57;10.90;;;6.00;99.90;;;;;;21132737;28;20744;-76
2021/03/08 18:59:28;;;;;;;21.50;9.10;;;5.70;99.90;;;;;;21108163;28;20131;-76
2021/03/08 19:09:29;;;;;;;27.67;11.60;;;5.00;99.90;;;;;;21152593;28;20032;-75
2021/03/08 19:19:30;;;;;;;22.43;11.47;;;5.00;99.90;;;;;;21133642;28;20032;-75
2021/03/08 19:29:31;;;;;;;22.00;10.97;;;5.00;99.90;;;;;;21150992;28;20027;-76
2021/03/08 19:39:31;;;;;;;27.20;11.77;;;5.10;99.90;;;;;;21158596;28;20027;-75
2021/03/08 19:49:32;;;;;;;20.83;11.43;;;4.70;99.90;;;;;;21148379;28;20050;-75
2021/03/08 19:59:33;;;;;;;27.73;12.13;;;4.60;99.90;;;;;;21132366;28;20036;-75
2021/03/08 20:09:34;;;;;;;22.77;11.97;;;4.10;99.90;;;;;;21120896;28;20680;-76
2021/03/08 20:19:35;;;;;;;24.80;12.47;;;3.80;99.90;;;;;;21147648;28;20364;-76
2021/03/08 20:29:37;;;;;;;29.60;12.45;;;3.80;99.90;;;;;;21149104;28;20035;-75
2021/03/08 20:39:38;;;;;;;27.23;12.88;;;3.60;99.90;;;;;;21147960;28;20114;-75
2021/03/08 20:49:39;;;;;;;26.40;13.02;;;3.40;99.90;;;;;;21129349;28;20118;-74
2021/03/08 20:59:40;;;;;;;30.23;13.47;;;3.60;99.90;;;;;;21146550;28;20035;-75
2021/03/08 21:09:41;;;;;;;25.27;13.07;;;3.50;99.90;;;;;;21126943;28;20618;-76
2021/03/08 21:19:41;;;;;;;27.40;13.07;;;3.30;99.90;;;;;;21122294;28;20035;-76
2021/03/08 21:29:42;;;;;;;23.83;12.97;;;3.10;99.90;;;;;;21135002;28;20286;-75
2021/03/08 21:39:44;;;;;;;24.33;12.50;;;3.30;99.90;;;;;;21128325;28;20288;-74
2021/03/08 21:49:45;;;;;;;25.15;13.00;;;3.30;99.90;;;;;;21141207;28;20076;-74
2021/03/08 21:59:46;;;;;;;24.58;11.85;;;2.90;99.90;;;;;;21103991;28;20119;-73
2021/03/08 22:09:47;;;;;;;21.48;11.35;;;2.70;99.90;;;;;;21153605;28;20074;-76
2021/03/08 22:19:48;;;;;;;18.15;10.68;;;2.80;99.90;;;;;;21155430;28;20362;-74
2021/03/08 22:29:49;;;;;;;26.65;10.60;;;2.80;99.90;;;;;;21154935;28;20031;-76
2021/03/08 22:39:50;;;;;;;20.67;10.67;;;2.60;99.90;;;;;;21112912;23;20156;-77
2021/03/08 22:49:51;;;;;;;24.58;10.88;;;2.60;99.90;;;;;;21131068;28;20293;-77
2021/03/08 22:59:52;;;;;;;19.92;9.55;;;2.50;99.90;;;;;;21139679;28;20077;-77
2021/03/08 23:09:53;;;;;;;24.75;11.15;;;2.40;99.90;;;;;;21139153;28;20031;-77
2021/03/08 23:42:26;;;;;;;19.50;9.75;;;2.00;99.90;;;;;;21158010;28;20039;-77
2021/03/08 23:52:26;;;;;;;24.70;10.55;;;2.00;99.90;;;;;;21152428;28;20084;-76
